<?xml version="1.0" encoding="UTF-8"?>
<gpx creator="Wikiloc - https://www.wikiloc.com" version="1.1" xmlns="http://www.topografix.com/GPX/1/1" xmlns:xsi="http://www.w3.org/2001/XMLSchema-instance" xsi:schemaLocation="http://www.topografix.com/GPX/1/1 http://www.topografix.com/GPX/1/1/gpx.xsd">
  <metadata>
    <name>Wikiloc - Unione Itinerario 02 e 03</name>
    <author>
      <name>owen782</name>
      <link href="https://www.wikiloc.com/wikiloc/user.do?id=5312202">
        <text>owen782 on Wikiloc</text>
      </link>
    </author>
    <link href="https://www.wikiloc.com/hiking-trails/unione-itinerario-02-e-03-90515670">
      <text>Unione Itinerario 02 e 03 on Wikiloc</text>
    </link>
    <time>2021-12-10T11:40:30Z</time>
  </metadata>
  <trk>
    <name>Unione Itinerario 02 e 03</name>
    <cmt></cmt>
    <desc></desc>
    <trkseg>
      <trkpt lat="43.141265" lon="12.315676">
        <ele>510.931</ele>
        <time>2021-12-10T13:10:07Z</time>
      </trkpt>
      <trkpt lat="43.141287" lon="12.315751">
        <ele>510.761</ele>
        <time>2021-12-10T13:10:47Z</time>
      </trkpt>
      <trkpt lat="43.141335" lon="12.315774">
        <ele>510.407</ele>
        <time>2021-12-10T13:11:27Z</time>
      </trkpt>
      <trkpt lat="43.141499" lon="12.315690">
        <ele>510.208</ele>
        <time>2021-12-10T13:12:07Z</time>
      </trkpt>
      <trkpt lat="43.141570" lon="12.315655">
        <ele>510.482</ele>
        <time>2021-12-10T13:12:47Z</time>
      </trkpt>
      <trkpt lat="43.141696" lon="12.315510">
        <ele>510.313</ele>
        <time>2021-12-10T13:13:27Z</time>
      </trkpt>
      <trkpt lat="43.141860" lon="12.315333">
        <ele>508.238</ele>
        <time>2021-12-10T13:14:07Z</time>
      </trkpt>
      <trkpt lat="43.141972" lon="12.315288">
        <ele>508.334</ele>
        <time>2021-12-10T13:14:47Z</time>
      </trkpt>
      <trkpt lat="43.142111" lon="12.315330">
        <ele>509.618</ele>
        <time>2021-12-10T13:15:27Z</time>
      </trkpt>
      <trkpt lat="43.142172" lon="12.315378">
        <ele>510.919</ele>
        <time>2021-12-10T13:16:07Z</time>
      </trkpt>
      <trkpt lat="43.142548" lon="12.315240">
        <ele>509.630</ele>
        <time>2021-12-10T13:16:47Z</time>
      </trkpt>
      <trkpt lat="43.142735" lon="12.315179">
        <ele>507.493</ele>
        <time>2021-12-10T13:17:27Z</time>
      </trkpt>
      <trkpt lat="43.142812" lon="12.315151">
        <ele>506.515</ele>
        <time>2021-12-10T13:18:07Z</time>
      </trkpt>
      <trkpt lat="43.143023" lon="12.314945">
        <ele>502.365</ele>
        <time>2021-12-10T13:18:47Z</time>
      </trkpt>
      <trkpt lat="43.143174" lon="12.314743">
        <ele>499.311</ele>
        <time>2021-12-10T13:19:27Z</time>
      </trkpt>
      <trkpt lat="43.143265" lon="12.314508">
        <ele>496.108</ele>
        <time>2021-12-10T13:20:07Z</time>
      </trkpt>
      <trkpt lat="43.143289" lon="12.314316">
        <ele>493.220</ele>
        <time>2021-12-10T13:20:47Z</time>
      </trkpt>
      <trkpt lat="43.143314" lon="12.314173">
        <ele>490.981</ele>
        <time>2021-12-10T13:21:27Z</time>
      </trkpt>
      <trkpt lat="43.143374" lon="12.313981">
        <ele>490.656</ele>
        <time>2021-12-10T13:22:07Z</time>
      </trkpt>
      <trkpt lat="43.143536" lon="12.313407">
        <ele>488.062</ele>
        <time>2021-12-10T13:22:47Z</time>
      </trkpt>
      <trkpt lat="43.143691" lon="12.313014">
        <ele>486.596</ele>
        <time>2021-12-10T13:23:27Z</time>
      </trkpt>
      <trkpt lat="43.143855" lon="12.312605">
        <ele>483.477</ele>
        <time>2021-12-10T13:24:07Z</time>
      </trkpt>
      <trkpt lat="43.143887" lon="12.312332">
        <ele>481.128</ele>
        <time>2021-12-10T13:24:47Z</time>
      </trkpt>
      <trkpt lat="43.143942" lon="12.311975">
        <ele>479.671</ele>
        <time>2021-12-10T13:25:27Z</time>
      </trkpt>
      <trkpt lat="43.144045" lon="12.311666">
        <ele>479.092</ele>
        <time>2021-12-10T13:26:07Z</time>
      </trkpt>
      <trkpt lat="43.144196" lon="12.311360">
        <ele>479.373</ele>
        <time>2021-12-10T13:26:47Z</time>
      </trkpt>
      <trkpt lat="43.144296" lon="12.311173">
        <ele>479.220</ele>
        <time>2021-12-10T13:27:27Z</time>
      </trkpt>
      <trkpt lat="43.144364" lon="12.310945">
        <ele>478.308</ele>
        <time>2021-12-10T13:28:07Z</time>
      </trkpt>
      <trkpt lat="43.144467" lon="12.310829">
        <ele>480.618</ele>
        <time>2021-12-10T13:28:47Z</time>
      </trkpt>
      <trkpt lat="43.144579" lon="12.310475">
        <ele>479.939</ele>
        <time>2021-12-10T13:29:27Z</time>
      </trkpt>
      <trkpt lat="43.144724" lon="12.310192">
        <ele>479.474</ele>
        <time>2021-12-10T13:30:07Z</time>
      </trkpt>
      <trkpt lat="43.144763" lon="12.309950">
        <ele>478.410</ele>
        <time>2021-12-10T13:30:47Z</time>
      </trkpt>
      <trkpt lat="43.144811" lon="12.309744">
        <ele>478.174</ele>
        <time>2021-12-10T13:31:27Z</time>
      </trkpt>
      <trkpt lat="43.144927" lon="12.309490">
        <ele>476.145</ele>
        <time>2021-12-10T13:32:07Z</time>
      </trkpt>
      <trkpt lat="43.145114" lon="12.309410">
        <ele>475.726</ele>
        <time>2021-12-10T13:32:47Z</time>
      </trkpt>
      <trkpt lat="43.145413" lon="12.309297">
        <ele>473.179</ele>
        <time>2021-12-10T13:33:27Z</time>
      </trkpt>
      <trkpt lat="43.145670" lon="12.309258">
        <ele>470.498</ele>
        <time>2021-12-10T13:34:07Z</time>
      </trkpt>
      <trkpt lat="43.145786" lon="12.309290">
        <ele>469.715</ele>
        <time>2021-12-10T13:34:47Z</time>
      </trkpt>
      <trkpt lat="43.146008" lon="12.309419">
        <ele>467.826</ele>
        <time>2021-12-10T13:35:27Z</time>
      </trkpt>
      <trkpt lat="43.146192" lon="12.309612">
        <ele>467.008</ele>
        <time>2021-12-10T13:36:07Z</time>
      </trkpt>
      <trkpt lat="43.146459" lon="12.309789">
        <ele>465.038</ele>
        <time>2021-12-10T13:36:47Z</time>
      </trkpt>
      <trkpt lat="43.146674" lon="12.309896">
        <ele>461.919</ele>
        <time>2021-12-10T13:37:27Z</time>
      </trkpt>
      <trkpt lat="43.146951" lon="12.310024">
        <ele>455.554</ele>
        <time>2021-12-10T13:38:07Z</time>
      </trkpt>
      <trkpt lat="43.147103" lon="12.310134">
        <ele>453.770</ele>
        <time>2021-12-10T13:38:47Z</time>
      </trkpt>
      <trkpt lat="43.147247" lon="12.310394">
        <ele>455.834</ele>
        <time>2021-12-10T13:39:27Z</time>
      </trkpt>
      <trkpt lat="43.147350" lon="12.310626">
        <ele>458.125</ele>
        <time>2021-12-10T13:40:07Z</time>
      </trkpt>
      <trkpt lat="43.147482" lon="12.310845">
        <ele>456.846</ele>
        <time>2021-12-10T13:40:47Z</time>
      </trkpt>
      <trkpt lat="43.147614" lon="12.311083">
        <ele>453.719</ele>
        <time>2021-12-10T13:41:27Z</time>
      </trkpt>
      <trkpt lat="43.147711" lon="12.311312">
        <ele>451.719</ele>
        <time>2021-12-10T13:42:07Z</time>
      </trkpt>
      <trkpt lat="43.147778" lon="12.311550">
        <ele>450.009</ele>
        <time>2021-12-10T13:42:47Z</time>
      </trkpt>
      <trkpt lat="43.147817" lon="12.311720">
        <ele>449.619</ele>
        <time>2021-12-10T13:43:27Z</time>
      </trkpt>
      <trkpt lat="43.147920" lon="12.311772">
        <ele>448.908</ele>
        <time>2021-12-10T13:44:07Z</time>
      </trkpt>
      <trkpt lat="43.148013" lon="12.311733">
        <ele>447.970</ele>
        <time>2021-12-10T13:44:47Z</time>
      </trkpt>
      <trkpt lat="43.148087" lon="12.311566">
        <ele>445.161</ele>
        <time>2021-12-10T13:45:27Z</time>
      </trkpt>
      <trkpt lat="43.148149" lon="12.311427">
        <ele>442.256</ele>
        <time>2021-12-10T13:46:07Z</time>
      </trkpt>
      <trkpt lat="43.148219" lon="12.311440">
        <ele>441.422</ele>
        <time>2021-12-10T13:46:47Z</time>
      </trkpt>
      <trkpt lat="43.148374" lon="12.311411">
        <ele>439.216</ele>
        <time>2021-12-10T13:47:27Z</time>
      </trkpt>
      <trkpt lat="43.148573" lon="12.311357">
        <ele>437.777</ele>
        <time>2021-12-10T13:48:07Z</time>
      </trkpt>
      <trkpt lat="43.148660" lon="12.311444">
        <ele>439.398</ele>
        <time>2021-12-10T13:48:47Z</time>
      </trkpt>
      <trkpt lat="43.148626" lon="12.311528">
        <ele>440.681</ele>
        <time>2021-12-10T13:49:27Z</time>
      </trkpt>
    </trkseg>
  </trk></gpx>